createdAt,value
2017-11-08T00:00:46.782Z,0
2017-11-08T00:01:46.974Z,0
2017-11-08T00:02:46.769Z,0
2017-11-08T00:03:46.431Z,0
2017-11-08T00:04:46.422Z,0
2017-11-08T00:05:47.063Z,0
2017-11-08T00:06:47.044Z,0
2017-11-08T00:07:47.037Z,0
2017-11-08T00:08:46.055Z,0
2017-11-08T00:09:46.370Z,0
2017-11-08T00:10:46.362Z,0
2017-11-08T00:11:46.672Z,0
2017-11-08T00:12:46.992Z,0
2017-11-08T00:13:46.014Z,0
2017-11-08T00:14:46.327Z,0
2017-11-08T00:15:46.318Z,0
2017-11-08T00:16:46.304Z,0
2017-11-08T00:17:46.298Z,0
2017-11-08T00:18:46.941Z,0
2017-11-08T00:19:46.597Z,0
2017-11-08T00:20:46.918Z,0
2017-11-08T00:21:46.258Z,0
2017-11-08T00:22:46.250Z,0
2017-11-08T00:23:46.239Z,0
2017-11-08T00:24:45.904Z,0
2017-11-08T00:25:46.878Z,0
2017-11-08T00:26:46.642Z,0
2017-11-08T00:27:46.527Z,0
2017-11-08T00:28:46.511Z,0
2017-11-08T00:29:46.501Z,0
2017-11-08T00:30:46.178Z,0
2017-11-08T00:31:46.164Z,0
2017-11-08T00:32:46.254Z,0
2017-11-08T00:33:46.147Z,0
2017-11-08T00:34:46.461Z,0
2017-11-08T00:35:45.805Z,0
2017-11-08T00:36:46.115Z,0
2017-11-08T00:37:46.105Z,0
2017-11-08T00:38:46.420Z,0
2017-11-08T00:39:45.764Z,0
2017-11-08T00:40:46.497Z,0
2017-11-08T00:41:46.071Z,0
2017-11-08T00:42:46.385Z,0
2017-11-08T00:43:46.055Z,0
2017-11-08T00:44:46.038Z,0
2017-11-08T00:45:46.349Z,0
2017-11-08T00:46:46.444Z,0
2017-11-08T00:47:46.329Z,0
2017-11-08T00:48:46.001Z,0
2017-11-08T00:49:45.991Z,0
2017-11-08T00:50:45.983Z,0
2017-11-08T00:51:45.980Z,0
2017-11-08T00:52:46.286Z,0
2017-11-08T00:53:46.276Z,0
2017-11-08T00:54:46.271Z,0
2017-11-08T00:55:46.260Z,0
2017-11-08T00:56:45.603Z,0
2017-11-08T00:57:45.593Z,0
2017-11-08T00:58:45.603Z,0
2017-11-08T00:59:45.897Z,0
2017-11-08T01:00:46.215Z,0
2017-11-08T01:01:46.203Z,0
2017-11-08T01:02:46.225Z,0
2017-11-08T01:03:46.183Z,0
2017-11-08T01:04:45.851Z,0
2017-11-08T01:05:46.168Z,0
2017-11-08T01:06:45.832Z,0
2017-11-08T01:07:45.500Z,0
2017-11-08T01:08:45.813Z,0
2017-11-08T01:09:46.124Z,0
2017-11-08T01:10:45.470Z,0
2017-11-08T01:11:46.429Z,0
2017-11-08T01:12:45.788Z,0
2017-11-08T01:13:45.461Z,0
2017-11-08T01:14:45.754Z,0
2017-11-08T01:15:45.423Z,0
2017-11-08T01:16:45.415Z,0
2017-11-08T01:17:45.405Z,0
2017-11-08T01:18:46.368Z,0
2017-11-08T01:19:46.357Z,0
2017-11-08T01:20:46.218Z,0
2017-11-08T01:21:46.015Z,0
2017-11-08T01:22:45.356Z,0
2017-11-08T01:23:45.669Z,0
2017-11-08T01:24:45.659Z,0
2017-11-08T01:25:45.981Z,0
2017-11-08T01:26:45.639Z,0
2017-11-08T01:27:45.952Z,0
2017-11-08T01:28:45.618Z,0
2017-11-08T01:29:46.275Z,0
2017-11-08T01:30:45.609Z,0
2017-11-08T01:31:45.270Z,0
2017-11-08T01:32:45.360Z,0
2017-11-08T01:33:45.253Z,0
2017-11-08T01:34:45.561Z,0
2017-11-08T01:35:45.553Z,0
2017-11-08T01:36:45.324Z,0
2017-11-08T01:37:45.856Z,0
2017-11-08T01:38:45.853Z,0
2017-11-08T01:39:45.838Z,0
2017-11-08T01:40:45.833Z,0
2017-11-08T01:41:45.275Z,0
2017-11-08T01:42:45.814Z,0
2017-11-08T01:43:45.155Z,0
2017-11-08T01:44:45.467Z,0
2017-11-08T01:45:45.465Z,0
2017-11-08T01:46:45.784Z,0
2017-11-08T01:47:45.492Z,0
2017-11-08T01:48:45.444Z,0
2017-11-08T01:49:45.420Z,0
2017-11-08T01:50:46.161Z,0
2017-11-08T01:51:45.825Z,0
2017-11-08T01:52:45.721Z,0
2017-11-08T01:53:45.710Z,0
2017-11-08T01:54:45.696Z,0
2017-11-08T01:55:45.373Z,0
2017-11-08T01:56:45.031Z,0
2017-11-08T01:57:45.669Z,0
2017-11-08T01:58:45.338Z,0
2017-11-08T01:59:45.328Z,0
2017-11-08T02:00:45.321Z,0
2017-11-08T02:01:45.949Z,0
2017-11-08T02:02:45.297Z,0
2017-11-08T02:03:45.645Z,0
2017-11-08T02:04:45.280Z,0
2017-11-08T02:05:45.920Z,0
2017-11-08T02:06:45.270Z,0
2017-11-08T02:07:45.574Z,0
2017-11-08T02:08:45.243Z,0
2017-11-08T02:09:45.231Z,0
2017-11-08T02:10:45.544Z,0
2017-11-08T02:11:45.529Z,0
2017-11-08T02:12:45.208Z,0
2017-11-08T02:13:45.191Z,0
2017-11-08T02:14:45.507Z,0
2017-11-08T02:15:45.506Z,0
2017-11-08T02:16:44.838Z,0
2017-11-08T02:17:45.488Z,0
2017-11-08T02:18:45.178Z,0
2017-11-08T02:19:45.140Z,0
2017-11-08T02:20:44.805Z,0
2017-11-08T02:21:45.122Z,0
2017-11-08T02:22:45.426Z,0
2017-11-08T02:23:45.419Z,0
2017-11-08T02:24:45.741Z,0
2017-11-08T02:25:44.755Z,0
2017-11-08T02:26:45.394Z,0
2017-11-08T02:27:45.388Z,0
2017-11-08T02:28:45.059Z,0
2017-11-08T02:29:45.690Z,0
2017-11-08T02:30:45.368Z,0
2017-11-08T02:31:44.698Z,0
2017-11-08T02:32:45.340Z,0
2017-11-08T02:33:45.424Z,0
2017-11-08T02:34:45.322Z,0
2017-11-08T02:35:45.627Z,0
2017-11-08T02:36:45.618Z,0
2017-11-08T02:37:44.640Z,0
2017-11-08T02:38:45.279Z,0
2017-11-08T02:39:44.623Z,0
2017-11-08T02:40:44.936Z,0
2017-11-08T02:41:45.250Z,0
2017-11-08T02:42:44.593Z,0
2017-11-08T02:43:45.228Z,0
2017-11-08T02:44:44.900Z,0
2017-11-08T02:45:45.214Z,0
2017-11-08T02:46:44.570Z,0
2017-11-08T02:47:45.509Z,0
2017-11-08T02:48:45.502Z,0
2017-11-08T02:49:44.851Z,0
2017-11-08T02:50:44.839Z,0
2017-11-08T02:51:45.168Z,0
2017-11-08T02:52:44.835Z,0
2017-11-08T02:53:45.143Z,0
2017-11-08T02:54:45.233Z,0
2017-11-08T02:55:45.120Z,0
2017-11-08T02:56:44.461Z,0
2017-11-08T02:57:44.780Z,0
2017-11-08T02:58:44.763Z,0
2017-11-08T02:59:45.093Z,0
2017-11-08T03:00:45.083Z,0
2017-11-08T03:01:44.735Z,0
2017-11-08T03:02:44.730Z,0
2017-11-08T03:03:45.153Z,0
2017-11-08T03:04:44.387Z,0
2017-11-08T03:05:45.025Z,0
2017-11-08T03:06:45.012Z,0
2017-11-08T03:07:45.327Z,0
2017-11-08T03:08:44.994Z,0
2017-11-08T03:09:44.980Z,0
2017-11-08T03:10:45.067Z,0
2017-11-08T03:11:45.301Z,0
2017-11-08T03:12:44.957Z,0
2017-11-08T03:13:44.724Z,0
2017-11-08T03:14:44.930Z,0
2017-11-08T03:15:45.256Z,0
2017-11-08T03:16:44.928Z,0
2017-11-08T03:17:44.911Z,0
2017-11-08T03:18:44.916Z,0
2017-11-08T03:19:44.567Z,0
2017-11-08T03:20:44.235Z,0
2017-11-08T03:21:44.221Z,0
2017-11-08T03:22:44.858Z,0
2017-11-08T03:23:45.180Z,0
2017-11-08T03:24:44.194Z,0
2017-11-08T03:25:44.843Z,0
2017-11-08T03:26:44.504Z,0
2017-11-08T03:27:44.488Z,0
2017-11-08T03:28:44.903Z,0
2017-11-08T03:29:44.474Z,0
2017-11-08T03:30:44.474Z,0
2017-11-08T03:31:44.451Z,0
2017-11-08T03:32:45.199Z,0
2017-11-08T03:33:44.114Z,0
2017-11-08T03:34:44.747Z,0
2017-11-08T03:35:44.843Z,0
2017-11-08T03:36:44.404Z,0
2017-11-08T03:37:44.721Z,0
2017-11-08T03:38:44.389Z,0
2017-11-08T03:39:44.910Z,0
2017-11-08T03:40:44.467Z,0
2017-11-08T03:41:44.353Z,0
2017-11-08T03:42:44.133Z,0
2017-11-08T03:43:44.675Z,0
2017-11-08T03:44:44.653Z,0
2017-11-08T03:45:44.640Z,0
2017-11-08T03:46:44.630Z,0
2017-11-08T03:47:44.949Z,0
2017-11-08T03:48:44.619Z,0
2017-11-08T03:49:44.936Z,0
2017-11-08T03:50:44.598Z,0
2017-11-08T03:51:43.940Z,0
2017-11-08T03:52:44.249Z,0
2017-11-08T03:53:44.576Z,0
2017-11-08T03:54:44.240Z,0
2017-11-08T03:55:44.230Z,0
2017-11-08T03:56:43.891Z,0
2017-11-08T03:57:44.529Z,0
2017-11-08T03:58:44.294Z,0
2017-11-08T03:59:44.286Z,0
2017-11-08T04:00:44.828Z,0
2017-11-08T04:01:44.821Z,0
2017-11-08T04:02:44.480Z,0
2017-11-08T04:03:44.474Z,0
2017-11-08T04:04:44.455Z,0
2017-11-08T04:05:44.453Z,0
2017-11-08T04:06:44.127Z,0
2017-11-08T04:07:44.533Z,0
2017-11-08T04:08:43.776Z,0
2017-11-08T04:09:44.517Z,0
2017-11-08T04:10:44.180Z,0
2017-11-08T04:11:44.070Z,0
2017-11-08T04:12:43.739Z,0
2017-11-08T04:13:44.380Z,0
2017-11-08T04:14:44.685Z,0
2017-11-08T04:15:44.031Z,0
2017-11-08T04:16:44.025Z,0
2017-11-08T04:17:43.693Z,0
2017-11-08T04:18:44.006Z,0
2017-11-08T04:19:44.425Z,0
2017-11-08T04:20:44.319Z,0
2017-11-08T04:21:44.320Z,0
2017-11-08T04:22:44.287Z,0
2017-11-08T04:23:44.055Z,0
2017-11-08T04:24:44.268Z,0
2017-11-08T04:25:43.611Z,0
2017-11-08T04:26:43.929Z,0
2017-11-08T04:27:43.914Z,0
2017-11-08T04:28:44.015Z,0
2017-11-08T04:29:43.903Z,0
2017-11-08T04:30:44.213Z,0
2017-11-08T04:31:44.202Z,0
2017-11-08T04:32:44.196Z,0
2017-11-08T04:33:43.878Z,0
2017-11-08T04:34:43.856Z,0
2017-11-08T04:35:44.175Z,0
2017-11-08T04:36:43.511Z,0
2017-11-08T04:37:43.820Z,0
2017-11-08T04:38:43.914Z,0
2017-11-08T04:39:44.130Z,0
2017-11-08T04:40:44.120Z,0
2017-11-08T04:41:43.784Z,0
2017-11-08T04:42:43.777Z,0
2017-11-08T04:43:44.513Z,0
2017-11-08T04:44:44.075Z,0
2017-11-08T04:45:43.744Z,0
2017-11-08T04:46:43.747Z,0
2017-11-08T04:47:44.047Z,0
2017-11-08T04:48:43.395Z,0
2017-11-08T04:49:44.038Z,0
2017-11-08T04:50:44.348Z,0
2017-11-08T04:51:44.017Z,0
2017-11-08T04:52:43.357Z,0
2017-11-08T04:53:43.771Z,0
2017-11-08T04:54:43.983Z,0
2017-11-08T04:55:43.648Z,0
2017-11-08T04:56:43.962Z,0
2017-11-08T04:57:43.632Z,0
2017-11-08T04:58:43.618Z,0
2017-11-08T04:59:43.609Z,0
2017-11-08T05:00:43.282Z,0
2017-11-08T05:01:43.918Z,0
2017-11-08T05:02:44.284Z,0
2017-11-08T05:03:43.898Z,0
2017-11-08T05:04:43.345Z,0
2017-11-08T05:05:43.551Z,0
2017-11-08T05:06:43.550Z,0
2017-11-08T05:07:43.859Z,0
2017-11-08T05:08:43.204Z,0
2017-11-08T05:09:43.193Z,0
2017-11-08T05:10:43.189Z,0
2017-11-08T05:11:43.830Z,0
2017-11-08T05:12:43.486Z,0
2017-11-08T05:13:43.158Z,0
2017-11-08T05:14:43.471Z,0
2017-11-08T05:15:43.782Z,0
2017-11-08T05:16:43.769Z,0
2017-11-08T05:17:43.540Z,0
2017-11-08T05:18:43.431Z,0
2017-11-08T05:19:43.419Z,0
2017-11-08T05:20:43.405Z,0
2017-11-08T05:21:43.718Z,0
2017-11-08T05:22:44.045Z,0
2017-11-08T05:23:43.711Z,0
2017-11-08T05:24:43.046Z,0
2017-11-08T05:25:44.016Z,0
2017-11-08T05:26:43.350Z,0
2017-11-08T05:27:43.668Z,0
2017-11-08T05:28:43.330Z,0
2017-11-08T05:29:43.418Z,0
2017-11-08T05:30:43.958Z,0
2017-11-08T05:31:43.624Z,0
2017-11-08T05:32:43.614Z,0
2017-11-08T05:33:43.284Z,0
2017-11-08T05:34:43.273Z,0
2017-11-08T05:35:42.941Z,0
2017-11-08T05:36:43.575Z,0
2017-11-08T05:37:43.574Z,0
2017-11-08T05:38:43.555Z,0
2017-11-08T05:39:43.226Z,0
2017-11-08T05:40:43.540Z,0
2017-11-08T05:41:42.890Z,0
2017-11-08T05:42:43.521Z,0
2017-11-08T05:43:43.189Z,0
2017-11-08T05:44:43.829Z,0
2017-11-08T05:45:43.165Z,0
2017-11-08T05:46:43.160Z,0
2017-11-08T05:47:43.155Z,0
2017-11-08T05:48:42.815Z,0
2017-11-08T05:49:43.131Z,0
2017-11-08T05:50:42.801Z,0
2017-11-08T05:51:43.107Z,0
2017-11-08T05:52:43.103Z,0
2017-11-08T05:53:43.414Z,0
2017-11-08T05:54:43.084Z,0
2017-11-08T05:55:43.073Z,0
2017-11-08T05:56:43.393Z,0
2017-11-08T05:57:43.054Z,0
2017-11-08T05:58:43.042Z,0
2017-11-08T05:59:43.028Z,0
2017-11-08T06:00:43.667Z,0
2017-11-08T06:01:43.334Z,0
2017-11-08T06:02:43.434Z,0
2017-11-08T06:03:43.653Z,0
2017-11-08T06:04:42.988Z,0
2017-11-08T06:05:42.974Z,0
2017-11-08T06:06:43.301Z,0
2017-11-08T06:07:43.290Z,0
2017-11-08T06:08:43.588Z,4
2017-11-08T06:09:42.948Z,4
2017-11-08T06:10:43.254Z,4
2017-11-08T06:11:42.918Z,4
2017-11-08T06:12:42.583Z,0
2017-11-08T06:13:42.570Z,0
2017-11-08T06:14:43.310Z,0
2017-11-08T06:15:42.558Z,4
2017-11-08T06:16:42.867Z,4
2017-11-08T06:17:42.961Z,4
2017-11-08T06:18:42.526Z,4
2017-11-08T06:19:43.163Z,4
2017-11-08T06:20:43.154Z,4
2017-11-08T06:21:42.832Z,4
2017-11-08T06:22:43.132Z,8
2017-11-08T06:23:42.901Z,12
2017-11-08T06:24:43.122Z,12
2017-11-08T06:25:42.557Z,8
2017-11-08T06:26:43.194Z,12
2017-11-08T06:27:43.086Z,12
2017-11-08T06:28:42.751Z,12
2017-11-08T06:29:43.068Z,12
2017-11-08T06:30:43.378Z,16
2017-11-08T06:31:42.823Z,12
2017-11-08T06:32:42.716Z,16
2017-11-08T06:33:42.702Z,16
2017-11-08T06:34:42.693Z,16
2017-11-08T06:35:42.687Z,16
2017-11-08T06:36:43.326Z,20
2017-11-08T06:37:43.012Z,24
2017-11-08T06:38:43.083Z,28
2017-11-08T06:39:42.646Z,32
2017-11-08T06:40:42.315Z,32
2017-11-08T06:41:42.623Z,36
2017-11-08T06:42:42.626Z,40
2017-11-08T06:43:42.607Z,44
2017-11-08T06:44:42.598Z,48
2017-11-08T06:45:42.911Z,48
2017-11-08T06:46:42.579Z,52
2017-11-08T06:47:42.568Z,52
2017-11-08T06:48:42.877Z,52
2017-11-08T06:49:42.560Z,52
2017-11-08T06:50:42.541Z,52
2017-11-08T06:51:42.535Z,48
2017-11-08T06:52:42.850Z,48
2017-11-08T06:53:42.836Z,48
2017-11-08T06:54:42.175Z,48
2017-11-08T06:55:42.170Z,48
2017-11-08T06:56:42.158Z,44
2017-11-08T06:57:43.116Z,40
2017-11-08T06:58:42.468Z,36
2017-11-08T06:59:42.555Z,32
2017-11-08T07:00:42.444Z,36
2017-11-08T07:01:42.858Z,32
2017-11-08T07:02:42.524Z,36
2017-11-08T07:03:42.413Z,32
2017-11-08T07:04:42.081Z,32
2017-11-08T07:05:42.394Z,36
2017-11-08T07:06:42.483Z,40
2017-11-08T07:07:42.570Z,40
2017-11-08T07:08:43.013Z,40
2017-11-08T07:09:42.030Z,44
2017-11-08T07:10:43.008Z,44
2017-11-08T07:11:42.662Z,48
2017-11-08T07:12:42.004Z,44
2017-11-08T07:13:42.645Z,40
2017-11-08T07:14:42.083Z,44
2017-11-08T07:15:41.976Z,44
2017-11-08T07:16:42.288Z,44
2017-11-08T07:17:42.378Z,44
2017-11-08T07:18:42.944Z,44
2017-11-08T07:19:42.585Z,44
2017-11-08T07:20:41.926Z,44
2017-11-08T07:21:42.558Z,44
2017-11-08T07:22:42.577Z,44
2017-11-08T07:23:42.224Z,44
2017-11-08T07:24:42.220Z,48
2017-11-08T07:25:42.207Z,44
2017-11-08T07:26:42.517Z,52
2017-11-08T07:27:42.500Z,52
2017-11-08T07:28:41.845Z,56
2017-11-08T07:29:42.811Z,56
2017-11-08T07:30:42.152Z,52
2017-11-08T07:31:42.137Z,48
2017-11-08T07:32:42.784Z,48
2017-11-08T07:33:42.119Z,48
2017-11-08T07:34:41.888Z,52
2017-11-08T07:35:42.100Z,56
2017-11-08T07:36:42.423Z,56
2017-11-08T07:37:42.732Z,60
2017-11-08T07:38:42.074Z,64
2017-11-08T07:39:42.063Z,64
2017-11-08T07:40:41.729Z,68
2017-11-08T07:41:42.085Z,72
2017-11-08T07:42:42.031Z,76
2017-11-08T07:43:42.025Z,80
2017-11-08T07:44:41.696Z,84
2017-11-08T07:45:42.654Z,84
2017-11-08T07:46:42.000Z,96
2017-11-08T07:47:42.689Z,100
2017-11-08T07:48:41.654Z,104
2017-11-08T07:49:41.970Z,100
2017-11-08T07:50:41.971Z,96
2017-11-08T07:51:41.949Z,100
2017-11-08T07:52:42.582Z,100
2017-11-08T07:53:42.289Z,96
2017-11-08T07:54:42.245Z,92
2017-11-08T07:55:42.235Z,100
2017-11-08T07:56:41.900Z,104
2017-11-08T07:57:41.989Z,100
2017-11-08T07:58:41.560Z,100
2017-11-08T07:59:42.197Z,104
2017-11-08T08:00:41.546Z,108
2017-11-08T08:01:41.528Z,112
2017-11-08T08:02:41.842Z,116
2017-11-08T08:03:41.834Z,120
2017-11-08T08:04:42.148Z,120
2017-11-08T08:05:41.849Z,120
2017-11-08T08:06:42.450Z,120
2017-11-08T08:07:41.798Z,124
2017-11-08T08:08:41.461Z,124
2017-11-08T08:09:42.537Z,128
2017-11-08T08:10:41.767Z,128
2017-11-08T08:11:42.081Z,124
2017-11-08T08:12:41.743Z,120
2017-11-08T08:13:41.737Z,128
2017-11-08T08:14:41.409Z,132
2017-11-08T08:15:41.717Z,140
2017-11-08T08:16:42.029Z,140
2017-11-08T08:17:41.703Z,140
2017-11-08T08:18:41.365Z,140
2017-11-08T08:19:41.999Z,148
2017-11-08T08:20:42.323Z,148
2017-11-08T08:21:41.658Z,156
2017-11-08T08:22:42.172Z,164
2017-11-08T08:23:42.065Z,164
2017-11-08T08:24:41.635Z,168
2017-11-08T08:25:41.619Z,156
2017-11-08T08:26:41.612Z,156
2017-11-08T08:27:42.348Z,152
2017-11-08T08:28:42.022Z,148
2017-11-08T08:29:41.586Z,156
2017-11-08T08:30:41.573Z,152
2017-11-08T08:31:41.882Z,148
2017-11-08T08:32:41.332Z,160
2017-11-08T08:33:41.540Z,156
2017-11-08T08:34:41.539Z,160
2017-11-08T08:35:41.856Z,160
2017-11-08T08:36:41.836Z,164
2017-11-08T08:37:41.824Z,160
2017-11-08T08:38:42.149Z,168
2017-11-08T08:39:41.488Z,180
2017-11-08T08:40:41.487Z,180
2017-11-08T08:41:41.466Z,192
2017-11-08T08:42:42.213Z,188
2017-11-08T08:43:41.450Z,184
2017-11-08T08:44:41.761Z,196
2017-11-08T08:45:41.430Z,200
2017-11-08T08:46:41.844Z,196
2017-11-08T08:47:41.413Z,192
2017-11-08T08:48:41.725Z,200
2017-11-08T08:49:41.069Z,204
2017-11-08T08:50:42.033Z,212
2017-11-08T08:51:41.375Z,208
2017-11-08T08:52:41.360Z,200
2017-11-08T08:53:41.675Z,200
2017-11-08T08:54:41.025Z,192
2017-11-08T08:55:41.656Z,192
2017-11-08T08:56:41.326Z,212
2017-11-08T08:57:41.966Z,228
2017-11-08T08:58:41.320Z,244
2017-11-08T08:59:41.629Z,232
2017-11-08T09:00:41.291Z,228
2017-11-08T09:01:41.603Z,228
2017-11-08T09:02:41.265Z,248
2017-11-08T09:03:41.262Z,264
2017-11-08T09:04:41.572Z,256
2017-11-08T09:05:41.556Z,256
2017-11-08T09:06:41.549Z,292
2017-11-08T09:07:41.540Z,288
2017-11-08T09:08:41.209Z,292
2017-11-08T09:09:41.525Z,296
2017-11-08T09:10:41.185Z,284
2017-11-08T09:11:41.698Z,308
2017-11-08T09:12:41.173Z,300
2017-11-08T09:13:41.264Z,284
2017-11-08T09:14:41.153Z,288
2017-11-08T09:15:41.462Z,304
2017-11-08T09:16:40.809Z,304
2017-11-08T09:17:40.797Z,336
2017-11-08T09:18:41.113Z,352
2017-11-08T09:19:40.881Z,364
2017-11-08T09:20:41.095Z,372
2017-11-08T09:21:41.743Z,388
2017-11-08T09:22:41.714Z,384
2017-11-08T09:23:41.387Z,348
2017-11-08T09:24:41.478Z,324
2017-11-08T09:25:40.722Z,296
2017-11-08T09:26:41.683Z,308
2017-11-08T09:27:41.347Z,296
2017-11-08T09:28:41.344Z,324
2017-11-08T09:29:40.685Z,332
2017-11-08T09:30:41.420Z,352
2017-11-08T09:31:41.310Z,380
2017-11-08T09:32:40.653Z,364
2017-11-08T09:33:40.974Z,416
2017-11-08T09:34:41.280Z,440
2017-11-08T09:35:41.380Z,460
2017-11-08T09:36:41.271Z,448
2017-11-08T09:37:41.255Z,400
2017-11-08T09:38:40.921Z,420
2017-11-08T09:39:40.590Z,440
2017-11-08T09:40:40.900Z,448
2017-11-08T09:41:40.899Z,424
2017-11-08T09:42:40.882Z,432
2017-11-08T09:43:40.549Z,444
2017-11-08T09:44:40.875Z,464
2017-11-08T09:45:40.530Z,488
2017-11-08T09:46:40.848Z,480
2017-11-08T09:47:41.186Z,448
2017-11-08T09:48:40.825Z,444
2017-11-08T09:49:40.825Z,448
2017-11-08T09:50:41.139Z,448
2017-11-08T09:51:41.116Z,464
2017-11-08T09:52:40.892Z,484
2017-11-08T09:53:40.776Z,496
2017-11-08T09:54:40.783Z,480
2017-11-08T09:55:40.759Z,480
2017-11-08T09:56:41.114Z,496
2017-11-08T09:57:40.740Z,516
2017-11-08T09:58:41.386Z,496
2017-11-08T09:59:41.415Z,460
2017-11-08T10:00:40.494Z,440
2017-11-08T10:01:41.025Z,428
2017-11-08T10:02:40.698Z,388
2017-11-08T10:03:41.008Z,356
2017-11-08T10:04:41.356Z,320
2017-11-08T10:05:41.316Z,284
2017-11-08T10:06:40.656Z,280
2017-11-08T10:07:41.007Z,288
2017-11-08T10:08:41.068Z,292
2017-11-08T10:09:41.002Z,300
2017-11-08T10:10:41.332Z,296
2017-11-08T10:11:40.979Z,304
2017-11-08T10:12:41.311Z,320
2017-11-08T10:13:40.630Z,320
2017-11-08T10:14:40.658Z,332
2017-11-08T10:15:40.246Z,348
2017-11-08T10:16:40.559Z,348
2017-11-08T10:17:40.564Z,340
2017-11-08T10:18:40.543Z,344
2017-11-08T10:19:40.961Z,344
2017-11-08T10:20:40.197Z,360
2017-11-08T10:21:40.520Z,376
2017-11-08T10:22:40.837Z,360
2017-11-08T10:23:40.815Z,360
2017-11-08T10:24:41.129Z,380
2017-11-08T10:25:40.473Z,384
2017-11-08T10:26:40.464Z,376
2017-11-08T10:27:40.783Z,376
2017-11-08T10:28:40.123Z,392
2017-11-08T10:29:40.437Z,396
2017-11-08T10:30:40.755Z,400
2017-11-08T10:31:40.759Z,420
2017-11-08T10:32:40.728Z,432
2017-11-08T10:33:40.722Z,440
2017-11-08T10:34:40.710Z,468
2017-11-08T10:35:40.057Z,512
2017-11-08T10:36:40.369Z,528
2017-11-08T10:37:40.682Z,564
2017-11-08T10:38:40.350Z,552
2017-11-08T10:39:40.675Z,516
2017-11-08T10:40:40.656Z,524
2017-11-08T10:41:40.999Z,536
2017-11-08T10:42:40.932Z,508
2017-11-08T10:43:40.701Z,476
2017-11-08T10:44:40.687Z,492
2017-11-08T10:45:40.591Z,492
2017-11-08T10:46:40.561Z,460
2017-11-08T10:47:40.561Z,448
2017-11-08T10:48:40.552Z,452
2017-11-08T10:49:40.210Z,432
2017-11-08T10:50:40.855Z,440
2017-11-08T10:51:40.528Z,452
2017-11-08T10:52:40.833Z,448
2017-11-08T10:53:40.835Z,560
2017-11-08T10:54:40.499Z,580
2017-11-08T10:55:40.804Z,640
2017-11-08T10:56:40.790Z,672
2017-11-08T10:57:40.881Z,604
2017-11-08T10:58:40.776Z,624
2017-11-08T10:59:40.120Z,596
2017-11-08T11:00:40.434Z,604
2017-11-08T11:01:40.423Z,640
2017-11-08T11:02:40.518Z,680
2017-11-08T11:03:40.081Z,628
2017-11-08T11:04:40.821Z,620
2017-11-08T11:05:40.404Z,600
2017-11-08T11:06:40.709Z,604
2017-11-08T11:07:40.687Z,600
2017-11-08T11:08:40.367Z,624
2017-11-08T11:09:40.778Z,620
2017-11-08T11:10:40.342Z,612
2017-11-08T11:11:40.006Z,580
2017-11-08T11:12:40.319Z,564
2017-11-08T11:13:40.327Z,548
2017-11-08T11:14:40.077Z,524
2017-11-08T11:15:40.292Z,532
2017-11-08T11:16:40.292Z,540
2017-11-08T11:17:39.950Z,564
2017-11-08T11:18:40.367Z,584
2017-11-08T11:19:40.585Z,576
2017-11-08T11:20:39.924Z,588
2017-11-08T11:21:40.571Z,592
2017-11-08T11:22:39.905Z,624
2017-11-08T11:23:40.662Z,640
2017-11-08T11:24:40.545Z,604
2017-11-08T11:25:40.528Z,604
2017-11-08T11:26:40.538Z,564
2017-11-08T11:27:40.184Z,524
2017-11-08T11:28:40.179Z,468
2017-11-08T11:29:40.604Z,424
2017-11-08T11:30:40.487Z,412
2017-11-08T11:31:40.148Z,412
2017-11-08T11:32:40.484Z,400
2017-11-08T11:33:40.144Z,400
2017-11-08T11:34:40.560Z,384
2017-11-08T11:35:39.792Z,372
2017-11-08T11:36:40.101Z,360
2017-11-08T11:37:40.097Z,368
2017-11-08T11:38:40.428Z,360
2017-11-08T11:39:40.088Z,364
2017-11-08T11:40:39.744Z,372
2017-11-08T11:41:40.057Z,388
2017-11-08T11:42:40.410Z,416
2017-11-08T11:43:40.042Z,420
2017-11-08T11:44:40.366Z,444
2017-11-08T11:45:39.696Z,444
2017-11-08T11:46:40.350Z,432
2017-11-08T11:47:40.337Z,468
2017-11-08T11:48:39.992Z,508
2017-11-08T11:49:39.663Z,480
2017-11-08T11:50:40.317Z,464
2017-11-08T11:51:39.982Z,460
2017-11-08T11:52:39.968Z,480
2017-11-08T11:53:39.955Z,492
2017-11-08T11:54:40.046Z,508
2017-11-08T11:55:40.260Z,524
2017-11-08T11:56:39.936Z,520
2017-11-08T11:57:39.915Z,492
2017-11-08T11:58:40.237Z,488
2017-11-08T11:59:40.316Z,484
2017-11-08T12:00:39.985Z,464
2017-11-08T12:01:39.548Z,428
2017-11-08T12:02:39.879Z,396
2017-11-08T12:03:39.893Z,384
2017-11-08T12:04:40.282Z,384
2017-11-08T12:05:39.936Z,412
2017-11-08T12:06:39.520Z,472
2017-11-08T12:07:39.496Z,548
2017-11-08T12:08:39.809Z,596
2017-11-08T12:09:39.811Z,608
2017-11-08T12:10:40.125Z,632
2017-11-08T12:11:39.790Z,664
2017-11-08T12:12:39.450Z,692
2017-11-08T12:13:40.090Z,700
2017-11-08T12:14:39.430Z,680
2017-11-08T12:15:39.423Z,676
2017-11-08T12:16:40.064Z,680
2017-11-08T12:17:40.052Z,680
2017-11-08T12:18:39.727Z,640
2017-11-08T12:19:39.386Z,588
2017-11-08T12:20:39.734Z,552
2017-11-08T12:21:39.243Z,524
2017-11-08T12:22:39.682Z,500
2017-11-08T12:23:39.779Z,484
2017-11-08T12:24:39.012Z,460
2017-11-08T12:25:39.659Z,456
2017-11-08T12:26:39.321Z,460
2017-11-08T12:27:39.975Z,472
2017-11-08T12:28:39.621Z,480
2017-11-08T12:29:39.295Z,480
2017-11-08T12:30:39.283Z,484
2017-11-08T12:31:39.637Z,492
2017-11-08T12:32:39.925Z,512
2017-11-08T12:33:39.584Z,516
2017-11-08T12:34:39.896Z,492
2017-11-08T12:35:39.568Z,476
2017-11-08T12:36:39.553Z,468
2017-11-08T12:37:39.223Z,460
2017-11-08T12:38:39.532Z,452
2017-11-08T12:39:39.526Z,436
2017-11-08T12:40:39.836Z,420
2017-11-08T12:41:39.514Z,424
2017-11-08T12:42:39.824Z,444
2017-11-08T12:43:39.162Z,480
2017-11-08T12:44:39.476Z,524
2017-11-08T12:45:39.808Z,532
2017-11-08T12:46:39.460Z,532
2017-11-08T12:47:39.463Z,528
2017-11-08T12:48:39.765Z,520
2017-11-08T12:49:39.760Z,516
2017-11-08T12:50:39.754Z,528
2017-11-08T12:51:39.090Z,540
2017-11-08T12:52:39.416Z,504
2017-11-08T12:53:39.735Z,472
2017-11-08T12:54:39.399Z,484
2017-11-08T12:55:39.717Z,488
2017-11-08T12:56:38.719Z,468
2017-11-08T12:57:39.687Z,424
2017-11-08T12:58:39.461Z,396
2017-11-08T12:59:39.357Z,392
2017-11-08T13:00:39.653Z,392
2017-11-08T13:01:39.334Z,408
2017-11-08T13:02:39.310Z,432
2017-11-08T13:03:39.661Z,440
2017-11-08T13:04:39.628Z,444
2017-11-08T13:05:39.288Z,436
2017-11-08T13:06:39.599Z,424
2017-11-08T13:07:39.270Z,392
2017-11-08T13:08:39.270Z,360
2017-11-08T13:09:39.261Z,336
2017-11-08T13:10:38.913Z,312
2017-11-08T13:11:39.228Z,300
2017-11-08T13:12:39.228Z,296
2017-11-08T13:13:38.935Z,292
2017-11-08T13:14:39.211Z,300
2017-11-08T13:15:39.518Z,280
2017-11-08T13:16:38.858Z,276
2017-11-08T13:17:38.860Z,284
2017-11-08T13:18:39.164Z,300
2017-11-08T13:19:39.155Z,312
2017-11-08T13:20:39.148Z,320
2017-11-08T13:21:39.464Z,324
2017-11-08T13:22:39.151Z,324
2017-11-08T13:23:39.121Z,316
2017-11-08T13:24:38.789Z,312
2017-11-08T13:25:39.431Z,296
2017-11-08T13:26:39.098Z,284
2017-11-08T13:27:39.404Z,276
2017-11-08T13:28:39.076Z,260
2017-11-08T13:29:39.387Z,244
2017-11-08T13:30:39.068Z,232
2017-11-08T13:31:39.373Z,216
2017-11-08T13:32:38.719Z,204
2017-11-08T13:33:39.457Z,200
2017-11-08T13:34:38.790Z,200
2017-11-08T13:35:38.360Z,204
2017-11-08T13:36:39.330Z,212
2017-11-08T13:37:38.994Z,220
2017-11-08T13:38:38.677Z,228
2017-11-08T13:39:38.980Z,232
2017-11-08T13:40:38.636Z,232
2017-11-08T13:41:39.278Z,232
2017-11-08T13:42:39.276Z,236
2017-11-08T13:43:39.272Z,232
2017-11-08T13:44:39.261Z,224
2017-11-08T13:45:39.283Z,232
2017-11-08T13:46:39.007Z,244
2017-11-08T13:47:39.246Z,248
2017-11-08T13:48:39.215Z,248
2017-11-08T13:49:38.887Z,252
2017-11-08T13:50:38.975Z,248
2017-11-08T13:51:38.859Z,248
2017-11-08T13:52:38.864Z,244
2017-11-08T13:53:38.849Z,240
2017-11-08T13:54:39.159Z,240
2017-11-08T13:55:38.835Z,248
2017-11-08T13:56:39.137Z,256
2017-11-08T13:57:38.482Z,264
2017-11-08T13:58:39.141Z,280
2017-11-08T13:59:38.903Z,268
2017-11-08T14:00:38.779Z,260
2017-11-08T14:01:38.775Z,252
2017-11-08T14:02:38.440Z,236
2017-11-08T14:03:39.183Z,220
2017-11-08T14:04:39.065Z,208
2017-11-08T14:05:38.736Z,196
2017-11-08T14:06:39.056Z,188
2017-11-08T14:07:38.731Z,180
2017-11-08T14:08:38.714Z,172
2017-11-08T14:09:38.380Z,168
2017-11-08T14:10:39.017Z,160
2017-11-08T14:11:39.023Z,164
2017-11-08T14:12:38.993Z,164
2017-11-08T14:13:38.988Z,168
2017-11-08T14:14:38.977Z,172
2017-11-08T14:15:38.316Z,176